sensor_id;sensor_type;location;lat;lon;timestamp;P1;durP1;ratioP1;P2;durP2;ratioP2
49890;SDS011;35780;55.568;37.492;2022-09-20T00:01:21;1.00;;;0.90;;
49890;SDS011;35780;55.568;37.492;2022-09-20T00:03:52;2.30;;;0.77;;
49890;SDS011;35780;55.568;37.492;2022-09-20T00:06:23;4.10;;;1.30;;
49890;SDS011;35780;55.568;37.492;2022-09-20T00:08:50;1.65;;;0.88;;
49890;SDS011;35780;55.568;37.492;2022-09-20T00:11:24;3.35;;;1.25;;
49890;SDS011;35780;55.568;37.492;2022-09-20T00:13:53;6.03;;;0.98;;
49890;SDS011;35780;55.568;37.492;2022-09-20T00:16:24;1.73;;;1.10;;
49890;SDS011;35780;55.568;37.492;2022-09-20T00:18:55;1.65;;;0.90;;
49890;SDS011;35780;55.568;37.492;2022-09-20T00:21:23;1.33;;;1.10;;
49890;SDS011;35780;55.568;37.492;2022-09-20T00:23:51;1.23;;;0.80;;
49890;SDS011;35780;55.568;37.492;2022-09-20T00:26:16;8.90;;;1.40;;
49890;SDS011;35780;55.568;37.492;2022-09-20T00:28:42;1.52;;;0.90;;
49890;SDS011;35780;55.568;37.492;2022-09-20T00:31:08;1.30;;;0.85;;
49890;SDS011;35780;55.568;37.492;2022-09-20T00:33:35;4.07;;;1.00;;
49890;SDS011;35780;55.568;37.492;2022-09-20T00:36:19;3.00;;;1.08;;
49890;SDS011;35780;55.568;37.492;2022-09-20T00:38:45;1.88;;;1.00;;
49890;SDS011;35780;55.568;37.492;2022-09-20T00:41:11;1.38;;;0.90;;
49890;SDS011;35780;55.568;37.492;2022-09-20T00:46:04;1.95;;;1.20;;
49890;SDS011;35780;55.568;37.492;2022-09-20T00:48:31;1.25;;;0.90;;
49890;SDS011;35780;55.568;37.492;2022-09-20T00:51:04;0.73;;;0.63;;
49890;SDS011;35780;55.568;37.492;2022-09-20T00:53:35;2.10;;;1.10;;
49890;SDS011;35780;55.568;37.492;2022-09-20T00:56:14;1.45;;;1.10;;
49890;SDS011;35780;55.568;37.492;2022-09-20T00:58:59;1.30;;;0.90;;
49890;SDS011;35780;55.568;37.492;2022-09-20T01:01:29;2.08;;;1.08;;
49890;SDS011;35780;55.568;37.492;2022-09-20T01:03:55;4.07;;;1.45;;
49890;SDS011;35780;55.568;37.492;2022-09-20T01:06:21;1.33;;;0.85;;
49890;SDS011;35780;55.568;37.492;2022-09-20T01:08:48;1.38;;;1.02;;
49890;SDS011;35780;55.568;37.492;2022-09-20T01:11:15;1.42;;;1.00;;
49890;SDS011;35780;55.568;37.492;2022-09-20T01:13:41;2.88;;;0.95;;
49890;SDS011;35780;55.568;37.492;2022-09-20T01:16:06;2.35;;;1.00;;
49890;SDS011;35780;55.568;37.492;2022-09-20T01:18:32;1.58;;;0.93;;
49890;SDS011;35780;55.568;37.492;2022-09-20T01:20:59;3.60;;;2.05;;
49890;SDS011;35780;55.568;37.492;2022-09-20T01:29:32;1.23;;;0.65;;
49890;SDS011;35780;55.568;37.492;2022-09-20T01:32:02;1.85;;;1.42;;
49890;SDS011;35780;55.568;37.492;2022-09-20T01:34:34;1.90;;;1.10;;
49890;SDS011;35780;55.568;37.492;2022-09-20T01:37:13;3.00;;;1.05;;
49890;SDS011;35780;55.568;37.492;2022-09-20T01:43:06;2.42;;;1.33;;
49890;SDS011;35780;55.568;37.492;2022-09-20T01:45:34;1.58;;;1.00;;
49890;SDS011;35780;55.568;37.492;2022-09-20T01:48:22;1.95;;;1.20;;
49890;SDS011;35780;55.568;37.492;2022-09-20T01:56:53;1.58;;;1.10;;
49890;SDS011;35780;55.568;37.492;2022-09-20T02:05:14;1.73;;;1.10;;
49890;SDS011;35780;55.568;37.492;2022-09-20T02:08:08;2.67;;;1.50;;
49890;SDS011;35780;55.568;37.492;2022-09-20T02:24:52;2.28;;;0.95;;
49890;SDS011;35780;55.568;37.492;2022-09-20T02:27:44;1.40;;;1.00;;
49890;SDS011;35780;55.568;37.492;2022-09-20T02:35:23;1.50;;;1.00;;
49890;SDS011;35780;55.568;37.492;2022-09-20T02:41:17;4.60;;;1.35;;
49890;SDS011;35780;55.568;37.492;2022-09-20T02:43:43;4.03;;;1.35;;
49890;SDS011;35780;55.568;37.492;2022-09-20T02:46:21;2.17;;;1.20;;
49890;SDS011;35780;55.568;37.492;2022-09-20T02:49:00;3.35;;;1.10;;
49890;SDS011;35780;55.568;37.492;2022-09-20T02:51:51;3.58;;;0.93;;
49890;SDS011;35780;55.568;37.492;2022-09-20T03:05:25;4.28;;;1.25;;
49890;SDS011;35780;55.568;37.492;2022-09-20T03:08:04;2.65;;;0.90;;
49890;SDS011;35780;55.568;37.492;2022-09-20T03:22:36;2.13;;;1.42;;
49890;SDS011;35780;55.568;37.492;2022-09-20T03:32:58;2.45;;;1.00;;
49890;SDS011;35780;55.568;37.492;2022-09-20T03:46:48;4.97;;;1.20;;
49890;SDS011;35780;55.568;37.492;2022-09-20T04:00:36;2.03;;;1.45;;
49890;SDS011;35780;55.568;37.492;2022-09-20T04:09:39;1.70;;;1.10;;
49890;SDS011;35780;55.568;37.492;2022-09-20T04:15:25;4.18;;;1.35;;
49890;SDS011;35780;55.568;37.492;2022-09-20T04:20:45;2.90;;;1.40;;
49890;SDS011;35780;55.568;37.492;2022-09-20T04:26:07;1.52;;;1.00;;
49890;SDS011;35780;55.568;37.492;2022-09-20T04:28:41;2.85;;;1.30;;
49890;SDS011;35780;55.568;37.492;2022-09-20T04:33:49;1.70;;;1.20;;
49890;SDS011;35780;55.568;37.492;2022-09-20T04:50:52;2.35;;;1.27;;
49890;SDS011;35780;55.568;37.492;2022-09-20T04:56:29;2.22;;;1.20;;
49890;SDS011;35780;55.568;37.492;2022-09-20T04:59:06;3.60;;;1.67;;
49890;SDS011;35780;55.568;37.492;2022-09-20T05:07:01;1.50;;;1.10;;
49890;SDS011;35780;55.568;37.492;2022-09-20T05:09:40;6.68;;;1.60;;
49890;SDS011;35780;55.568;37.492;2022-09-20T05:14:36;3.95;;;1.48;;
49890;SDS011;35780;55.568;37.492;2022-09-20T05:28:15;2.05;;;1.40;;
49890;SDS011;35780;55.568;37.492;2022-09-20T05:30:49;4.00;;;1.50;;
49890;SDS011;35780;55.568;37.492;2022-09-20T05:39:01;9.45;;;3.17;;
49890;SDS011;35780;55.568;37.492;2022-09-20T06:00:55;2.83;;;1.42;;
49890;SDS011;35780;55.568;37.492;2022-09-20T06:03:33;4.53;;;1.95;;
49890;SDS011;35780;55.568;37.492;2022-09-20T06:19:49;4.65;;;1.85;;
49890;SDS011;35780;55.568;37.492;2022-09-20T06:22:38;7.45;;;2.00;;
49890;SDS011;35780;55.568;37.492;2022-09-20T06:27:34;2.80;;;1.48;;
49890;SDS011;35780;55.568;37.492;2022-09-20T06:30:21;4.63;;;1.42;;
49890;SDS011;35780;55.568;37.492;2022-09-20T06:35:42;3.75;;;1.65;;
49890;SDS011;35780;55.568;37.492;2022-09-20T06:41:28;2.15;;;1.35;;
49890;SDS011;35780;55.568;37.492;2022-09-20T06:43:56;3.72;;;1.58;;
49890;SDS011;35780;55.568;37.492;2022-09-20T06:46:29;2.10;;;1.40;;
49890;SDS011;35780;55.568;37.492;2022-09-20T06:48:56;4.97;;;1.80;;
49890;SDS011;35780;55.568;37.492;2022-09-20T06:51:22;2.30;;;1.40;;
49890;SDS011;35780;55.568;37.492;2022-09-20T06:53:49;2.05;;;1.60;;
49890;SDS011;35780;55.568;37.492;2022-09-20T06:56:17;4.90;;;1.67;;
49890;SDS011;35780;55.568;37.492;2022-09-20T06:58:44;2.40;;;1.30;;
49890;SDS011;35780;55.568;37.492;2022-09-20T07:01:10;5.28;;;1.58;;
49890;SDS011;35780;55.568;37.492;2022-09-20T07:03:38;2.17;;;1.05;;
49890;SDS011;35780;55.568;37.492;2022-09-20T07:06:04;2.28;;;1.15;;
49890;SDS011;35780;55.568;37.492;2022-09-20T07:08:30;2.45;;;1.05;;
49890;SDS011;35780;55.568;37.492;2022-09-20T07:10:56;3.25;;;1.20;;
49890;SDS011;35780;55.568;37.492;2022-09-20T07:13:21;2.88;;;1.40;;
49890;SDS011;35780;55.568;37.492;2022-09-20T07:15:48;2.78;;;0.95;;
49890;SDS011;35780;55.568;37.492;2022-09-20T07:18:14;2.35;;;1.05;;
49890;SDS011;35780;55.568;37.492;2022-09-20T07:20:40;2.63;;;1.60;;
49890;SDS011;35780;55.568;37.492;2022-09-20T07:23:05;3.95;;;1.30;;
49890;SDS011;35780;55.568;37.492;2022-09-20T07:25:32;4.20;;;1.38;;
49890;SDS011;35780;55.568;37.492;2022-09-20T07:27:58;2.60;;;1.02;;
49890;SDS011;35780;55.568;37.492;2022-09-20T07:30:23;1.98;;;1.15;;
49890;SDS011;35780;55.568;37.492;2022-09-20T07:32:49;2.58;;;1.20;;
49890;SDS011;35780;55.568;37.492;2022-09-20T07:35:15;2.67;;;1.30;;
49890;SDS011;35780;55.568;37.492;2022-09-20T07:37:41;4.97;;;1.38;;
49890;SDS011;35780;55.568;37.492;2022-09-20T07:40:07;4.38;;;1.35;;
49890;SDS011;35780;55.568;37.492;2022-09-20T07:42:34;3.10;;;1.10;;
49890;SDS011;35780;55.568;37.492;2022-09-20T07:44:59;3.67;;;1.50;;
49890;SDS011;35780;55.568;37.492;2022-09-20T07:47:29;2.10;;;1.40;;
49890;SDS011;35780;55.568;37.492;2022-09-20T07:49:59;1.65;;;1.17;;
49890;SDS011;35780;55.568;37.492;2022-09-20T07:52:25;3.40;;;1.50;;
49890;SDS011;35780;55.568;37.492;2022-09-20T07:54:50;2.03;;;1.10;;
49890;SDS011;35780;55.568;37.492;2022-09-20T07:57:16;4.50;;;1.10;;
49890;SDS011;35780;55.568;37.492;2022-09-20T07:59:42;3.58;;;1.40;;
49890;SDS011;35780;55.568;37.492;2022-09-20T08:02:10;2.45;;;1.10;;
49890;SDS011;35780;55.568;37.492;2022-09-20T08:04:38;2.13;;;1.10;;
49890;SDS011;35780;55.568;37.492;2022-09-20T08:07:04;2.50;;;0.88;;
49890;SDS011;35780;55.568;37.492;2022-09-20T08:09:29;2.55;;;1.30;;
49890;SDS011;35780;55.568;37.492;2022-09-20T08:11:55;4.40;;;1.45;;
49890;SDS011;35780;55.568;37.492;2022-09-20T08:14:21;2.42;;;1.20;;
49890;SDS011;35780;55.568;37.492;2022-09-20T08:16:48;1.60;;;1.13;;
49890;SDS011;35780;55.568;37.492;2022-09-20T08:19:21;2.10;;;1.17;;
49890;SDS011;35780;55.568;37.492;2022-09-20T08:21:47;2.55;;;1.40;;
49890;SDS011;35780;55.568;37.492;2022-09-20T08:24:14;3.08;;;1.27;;
49890;SDS011;35780;55.568;37.492;2022-09-20T08:26:40;3.28;;;1.23;;
49890;SDS011;35780;55.568;37.492;2022-09-20T08:29:06;5.88;;;1.88;;
49890;SDS011;35780;55.568;37.492;2022-09-20T08:31:32;2.33;;;1.33;;
49890;SDS011;35780;55.568;37.492;2022-09-20T08:33:59;3.00;;;1.67;;
49890;SDS011;35780;55.568;37.492;2022-09-20T08:36:28;3.00;;;1.60;;
49890;SDS011;35780;55.568;37.492;2022-09-20T08:38:59;2.72;;;1.73;;
49890;SDS011;35780;55.568;37.492;2022-09-20T08:41:26;5.07;;;1.83;;
49890;SDS011;35780;55.568;37.492;2022-09-20T08:43:53;4.47;;;1.27;;
49890;SDS011;35780;55.568;37.492;2022-09-20T08:46:25;1.92;;;0.93;;
49890;SDS011;35780;55.568;37.492;2022-09-20T08:48:53;3.15;;;1.58;;
49890;SDS011;35780;55.568;37.492;2022-09-20T08:51:19;3.55;;;1.20;;
49890;SDS011;35780;55.568;37.492;2022-09-20T08:53:49;3.60;;;1.20;;
49890;SDS011;35780;55.568;37.492;2022-09-20T08:56:17;1.55;;;0.70;;
49890;SDS011;35780;55.568;37.492;2022-09-20T08:58:44;2.75;;;1.10;;
49890;SDS011;35780;55.568;37.492;2022-09-20T09:01:17;2.35;;;1.20;;
49890;SDS011;35780;55.568;37.492;2022-09-20T09:03:46;3.70;;;1.30;;
49890;SDS011;35780;55.568;37.492;2022-09-20T09:06:15;1.52;;;0.80;;
49890;SDS011;35780;55.568;37.492;2022-09-20T09:08:42;1.90;;;1.30;;
49890;SDS011;35780;55.568;37.492;2022-09-20T09:11:13;4.13;;;1.55;;
49890;SDS011;35780;55.568;37.492;2022-09-20T09:16:32;6.47;;;1.80;;
49890;SDS011;35780;55.568;37.492;2022-09-20T09:21:58;15.93;;;1.40;;
49890;SDS011;35780;55.568;37.492;2022-09-20T09:24:25;2.33;;;1.40;;
49890;SDS011;35780;55.568;37.492;2022-09-20T09:27:03;1.30;;;1.00;;
49890;SDS011;35780;55.568;37.492;2022-09-20T09:29:30;1.83;;;0.95;;
49890;SDS011;35780;55.568;37.492;2022-09-20T09:31:57;6.93;;;0.80;;
49890;SDS011;35780;55.568;37.492;2022-09-20T09:34:46;1.58;;;1.13;;
49890;SDS011;35780;55.568;37.492;2022-09-20T09:37:28;4.13;;;1.20;;
49890;SDS011;35780;55.568;37.492;2022-09-20T09:40:15;4.13;;;1.30;;
49890;SDS011;35780;55.568;37.492;2022-09-20T09:42:49;1.90;;;1.10;;
49890;SDS011;35780;55.568;37.492;2022-09-20T09:45:29;4.38;;;1.88;;
49890;SDS011;35780;55.568;37.492;2022-09-20T09:47:55;2.10;;;0.90;;
49890;SDS011;35780;55.568;37.492;2022-09-20T09:50:29;5.00;;;1.25;;
49890;SDS011;35780;55.568;37.492;2022-09-20T09:52:59;3.72;;;1.20;;
49890;SDS011;35780;55.568;37.492;2022-09-20T09:56:05;1.60;;;1.00;;
49890;SDS011;35780;55.568;37.492;2022-09-20T10:01:30;2.72;;;1.13;;
49890;SDS011;35780;55.568;37.492;2022-09-20T10:06:57;2.75;;;1.13;;
49890;SDS011;35780;55.568;37.492;2022-09-20T10:12:42;1.92;;;1.17;;
49890;SDS011;35780;55.568;37.492;2022-09-20T10:23:36;2.50;;;1.10;;
49890;SDS011;35780;55.568;37.492;2022-09-20T10:26:14;3.22;;;1.52;;
49890;SDS011;35780;55.568;37.492;2022-09-20T10:35:03;1.52;;;1.10;;
49890;SDS011;35780;55.568;37.492;2022-09-20T10:43:13;6.93;;;2.03;;
49890;SDS011;35780;55.568;37.492;2022-09-20T10:46:12;2.10;;;1.20;;
49890;SDS011;35780;55.568;37.492;2022-09-20T10:49:33;4.35;;;1.88;;
49890;SDS011;35780;55.568;37.492;2022-09-20T11:08:25;2.15;;;1.00;;
49890;SDS011;35780;55.568;37.492;2022-09-20T11:21:52;4.50;;;1.17;;
49890;SDS011;35780;55.568;37.492;2022-09-20T11:27:22;1.88;;;1.08;;
49890;SDS011;35780;55.568;37.492;2022-09-20T11:29:55;4.82;;;2.30;;
49890;SDS011;35780;55.568;37.492;2022-09-20T11:32:38;2.20;;;1.13;;
49890;SDS011;35780;55.568;37.492;2022-09-20T11:37:35;2.83;;;1.30;;
49890;SDS011;35780;55.568;37.492;2022-09-20T11:40:13;3.42;;;1.50;;
49890;SDS011;35780;55.568;37.492;2022-09-20T11:42:44;5.00;;;1.83;;
49890;SDS011;35780;55.568;37.492;2022-09-20T11:45:12;4.43;;;1.48;;
49890;SDS011;35780;55.568;37.492;2022-09-20T11:47:48;1.95;;;1.15;;
49890;SDS011;35780;55.568;37.492;2022-09-20T11:58:48;2.80;;;1.73;;
49890;SDS011;35780;55.568;37.492;2022-09-20T12:01:15;4.82;;;1.55;;
49890;SDS011;35780;55.568;37.492;2022-09-20T12:03:50;2.95;;;1.35;;
49890;SDS011;35780;55.568;37.492;2022-09-20T12:06:25;3.17;;;1.42;;
49890;SDS011;35780;55.568;37.492;2022-09-20T12:09:02;3.60;;;2.20;;
49890;SDS011;35780;55.568;37.492;2022-09-20T12:11:31;4.55;;;1.35;;
49890;SDS011;35780;55.568;37.492;2022-09-20T12:16:36;3.45;;;2.03;;
49890;SDS011;35780;55.568;37.492;2022-09-20T12:24:33;5.28;;;1.67;;
49890;SDS011;35780;55.568;37.492;2022-09-20T12:27:01;2.20;;;1.35;;
49890;SDS011;35780;55.568;37.492;2022-09-20T12:32:31;2.13;;;1.35;;
49890;SDS011;35780;55.568;37.492;2022-09-20T12:37:23;7.70;;;1.50;;
49890;SDS011;35780;55.568;37.492;2022-09-20T12:39:50;3.05;;;1.38;;
49890;SDS011;35780;55.568;37.492;2022-09-20T12:47:16;3.10;;;1.63;;
49890;SDS011;35780;55.568;37.492;2022-09-20T12:58:16;6.82;;;1.30;;
49890;SDS011;35780;55.568;37.492;2022-09-20T13:03:29;3.28;;;1.55;;
49890;SDS011;35780;55.568;37.492;2022-09-20T13:14:29;2.92;;;1.55;;
49890;SDS011;35780;55.568;37.492;2022-09-20T13:19:41;6.05;;;2.03;;
49890;SDS011;35780;55.568;37.492;2022-09-20T13:24:57;5.97;;;2.25;;
49890;SDS011;35780;55.568;37.492;2022-09-20T13:28:08;2.90;;;1.50;;
49890;SDS011;35780;55.568;37.492;2022-09-20T13:32:48;4.03;;;1.75;;
49890;SDS011;35780;55.568;37.492;2022-09-20T13:35:19;4.63;;;1.60;;
49890;SDS011;35780;55.568;37.492;2022-09-20T13:38:07;4.68;;;1.55;;
49890;SDS011;35780;55.568;37.492;2022-09-20T13:43:00;3.55;;;1.70;;
49890;SDS011;35780;55.568;37.492;2022-09-20T13:45:27;4.22;;;1.65;;
49890;SDS011;35780;55.568;37.492;2022-09-20T13:47:54;3.97;;;2.25;;
49890;SDS011;35780;55.568;37.492;2022-09-20T13:50:27;3.80;;;1.40;;
49890;SDS011;35780;55.568;37.492;2022-09-20T13:52:55;6.65;;;1.90;;
49890;SDS011;35780;55.568;37.492;2022-09-20T13:58:00;9.75;;;2.25;;
49890;SDS011;35780;55.568;37.492;2022-09-20T14:00:27;5.60;;;2.10;;
49890;SDS011;35780;55.568;37.492;2022-09-20T14:02:54;4.30;;;2.30;;
49890;SDS011;35780;55.568;37.492;2022-09-20T14:05:22;5.93;;;1.60;;
49890;SDS011;35780;55.568;37.492;2022-09-20T14:07:50;3.88;;;1.48;;
49890;SDS011;35780;55.568;37.492;2022-09-20T14:13:13;4.35;;;1.80;;
49890;SDS011;35780;55.568;37.492;2022-09-20T14:15:43;10.25;;;2.08;;
49890;SDS011;35780;55.568;37.492;2022-09-20T14:18:15;5.75;;;1.83;;
49890;SDS011;35780;55.568;37.492;2022-09-20T14:20:44;6.97;;;1.98;;
49890;SDS011;35780;55.568;37.492;2022-09-20T14:23:26;13.57;;;1.92;;
49890;SDS011;35780;55.568;37.492;2022-09-20T14:28:49;2.95;;;2.20;;
49890;SDS011;35780;55.568;37.492;2022-09-20T14:31:23;5.72;;;1.95;;
49890;SDS011;35780;55.568;37.492;2022-09-20T14:33:51;6.50;;;1.98;;
49890;SDS011;35780;55.568;37.492;2022-09-20T14:36:21;3.25;;;2.08;;
49890;SDS011;35780;55.568;37.492;2022-09-20T14:38:50;6.95;;;1.92;;
49890;SDS011;35780;55.568;37.492;2022-09-20T14:41:50;2.92;;;1.90;;
49890;SDS011;35780;55.568;37.492;2022-09-20T14:44:29;4.40;;;2.20;;
49890;SDS011;35780;55.568;37.492;2022-09-20T14:46:55;3.97;;;1.55;;
49890;SDS011;35780;55.568;37.492;2022-09-20T14:51:50;4.45;;;1.85;;
49890;SDS011;35780;55.568;37.492;2022-09-20T14:54:24;9.55;;;1.85;;
49890;SDS011;35780;55.568;37.492;2022-09-20T14:56:50;4.05;;;2.13;;
49890;SDS011;35780;55.568;37.492;2022-09-20T15:04:32;5.63;;;1.92;;
49890;SDS011;35780;55.568;37.492;2022-09-20T15:07:00;4.85;;;2.10;;
49890;SDS011;35780;55.568;37.492;2022-09-20T15:09:27;6.03;;;2.70;;
49890;SDS011;35780;55.568;37.492;2022-09-20T15:14:25;6.45;;;2.78;;
49890;SDS011;35780;55.568;37.492;2022-09-20T15:16:51;4.90;;;2.17;;
49890;SDS011;35780;55.568;37.492;2022-09-20T15:19:16;7.68;;;2.38;;
49890;SDS011;35780;55.568;37.492;2022-09-20T15:21:42;5.72;;;2.53;;
49890;SDS011;35780;55.568;37.492;2022-09-20T15:24:07;6.38;;;2.60;;
49890;SDS011;35780;55.568;37.492;2022-09-20T15:26:34;7.93;;;2.85;;
49890;SDS011;35780;55.568;37.492;2022-09-20T15:29:00;9.93;;;2.90;;
49890;SDS011;35780;55.568;37.492;2022-09-20T15:31:25;7.47;;;2.40;;
49890;SDS011;35780;55.568;37.492;2022-09-20T15:33:52;8.52;;;2.75;;
49890;SDS011;35780;55.568;37.492;2022-09-20T15:36:17;10.55;;;3.70;;
49890;SDS011;35780;55.568;37.492;2022-09-20T15:38:43;12.00;;;4.00;;
49890;SDS011;35780;55.568;37.492;2022-09-20T15:41:09;10.30;;;3.58;;
49890;SDS011;35780;55.568;37.492;2022-09-20T15:43:35;8.35;;;4.85;;
49890;SDS011;35780;55.568;37.492;2022-09-20T15:46:20;14.57;;;5.03;;
49890;SDS011;35780;55.568;37.492;2022-09-20T15:48:47;10.32;;;5.30;;
49890;SDS011;35780;55.568;37.492;2022-09-20T15:51:12;17.08;;;6.97;;
49890;SDS011;35780;55.568;37.492;2022-09-20T15:53:40;12.82;;;6.72;;
49890;SDS011;35780;55.568;37.492;2022-09-20T15:58:45;18.08;;;7.85;;
49890;SDS011;35780;55.568;37.492;2022-09-20T16:01:12;16.55;;;7.57;;
49890;SDS011;35780;55.568;37.492;2022-09-20T16:03:39;11.25;;;5.65;;
49890;SDS011;35780;55.568;37.492;2022-09-20T16:06:05;17.60;;;7.00;;
49890;SDS011;35780;55.568;37.492;2022-09-20T16:08:33;12.52;;;5.50;;
49890;SDS011;35780;55.568;37.492;2022-09-20T16:10:59;13.38;;;5.25;;
49890;SDS011;35780;55.568;37.492;2022-09-20T16:13:26;12.07;;;4.65;;
49890;SDS011;35780;55.568;37.492;2022-09-20T16:15:55;12.27;;;4.93;;
49890;SDS011;35780;55.568;37.492;2022-09-20T16:18:22;11.02;;;4.47;;
49890;SDS011;35780;55.568;37.492;2022-09-20T16:21:07;7.40;;;4.13;;
49890;SDS011;35780;55.568;37.492;2022-09-20T16:23:36;8.05;;;3.88;;
49890;SDS011;35780;55.568;37.492;2022-09-20T16:26:03;8.70;;;4.35;;
49890;SDS011;35780;55.568;37.492;2022-09-20T16:28:30;9.50;;;3.97;;
49890;SDS011;35780;55.568;37.492;2022-09-20T16:30:59;12.55;;;5.13;;
49890;SDS011;35780;55.568;37.492;2022-09-20T16:33:25;6.90;;;4.00;;
49890;SDS011;35780;55.568;37.492;2022-09-20T16:35:50;10.35;;;4.65;;
49890;SDS011;35780;55.568;37.492;2022-09-20T16:38:16;8.57;;;4.75;;
49890;SDS011;35780;55.568;37.492;2022-09-20T16:40:42;11.02;;;4.88;;
49890;SDS011;35780;55.568;37.492;2022-09-20T16:43:08;13.55;;;4.80;;
49890;SDS011;35780;55.568;37.492;2022-09-20T16:45:34;8.25;;;4.78;;
49890;SDS011;35780;55.568;37.492;2022-09-20T16:48:00;10.13;;;4.20;;
49890;SDS011;35780;55.568;37.492;2022-09-20T16:50:27;8.20;;;4.30;;
49890;SDS011;35780;55.568;37.492;2022-09-20T16:52:53;9.88;;;4.53;;
49890;SDS011;35780;55.568;37.492;2022-09-20T16:55:18;9.52;;;3.63;;
49890;SDS011;35780;55.568;37.492;2022-09-20T16:57:48;7.63;;;4.18;;
49890;SDS011;35780;55.568;37.492;2022-09-20T17:00:14;16.27;;;4.97;;
49890;SDS011;35780;55.568;37.492;2022-09-20T17:02:49;8.95;;;4.32;;
49890;SDS011;35780;55.568;37.492;2022-09-20T17:05:15;8.02;;;4.03;;
49890;SDS011;35780;55.568;37.492;2022-09-20T17:07:41;7.43;;;4.00;;
49890;SDS011;35780;55.568;37.492;2022-09-20T17:10:08;15.32;;;4.13;;
49890;SDS011;35780;55.568;37.492;2022-09-20T17:12:35;8.77;;;4.30;;
49890;SDS011;35780;55.568;37.492;2022-09-20T17:15:07;6.45;;;4.45;;
49890;SDS011;35780;55.568;37.492;2022-09-20T17:17:35;11.02;;;4.05;;
49890;SDS011;35780;55.568;37.492;2022-09-20T17:20:01;8.77;;;5.00;;
49890;SDS011;35780;55.568;37.492;2022-09-20T17:22:29;10.55;;;4.65;;
49890;SDS011;35780;55.568;37.492;2022-09-20T17:24:56;12.90;;;5.22;;
49890;SDS011;35780;55.568;37.492;2022-09-20T17:27:22;10.57;;;5.15;;
49890;SDS011;35780;55.568;37.492;2022-09-20T17:29:48;15.43;;;5.38;;
49890;SDS011;35780;55.568;37.492;2022-09-20T17:32:14;11.15;;;5.25;;
49890;SDS011;35780;55.568;37.492;2022-09-20T17:34:39;13.45;;;5.55;;
49890;SDS011;35780;55.568;37.492;2022-09-20T17:37:05;13.27;;;6.47;;
49890;SDS011;35780;55.568;37.492;2022-09-20T17:39:31;18.50;;;5.28;;
49890;SDS011;35780;55.568;37.492;2022-09-20T17:41:56;10.57;;;5.28;;
49890;SDS011;35780;55.568;37.492;2022-09-20T17:44:22;11.32;;;6.00;;
49890;SDS011;35780;55.568;37.492;2022-09-20T17:46:48;9.30;;;5.82;;
49890;SDS011;35780;55.568;37.492;2022-09-20T17:49:15;8.20;;;5.35;;
49890;SDS011;35780;55.568;37.492;2022-09-20T17:51:45;9.43;;;4.30;;
49890;SDS011;35780;55.568;37.492;2022-09-20T17:54:11;10.55;;;5.60;;
49890;SDS011;35780;55.568;37.492;2022-09-20T17:56:41;13.82;;;6.25;;
49890;SDS011;35780;55.568;37.492;2022-09-20T17:59:09;8.95;;;5.63;;
49890;SDS011;35780;55.568;37.492;2022-09-20T18:01:35;13.90;;;5.80;;
49890;SDS011;35780;55.568;37.492;2022-09-20T18:04:02;12.48;;;5.22;;
49890;SDS011;35780;55.568;37.492;2022-09-20T18:06:32;11.82;;;4.95;;
49890;SDS011;35780;55.568;37.492;2022-09-20T18:09:00;12.70;;;5.10;;
49890;SDS011;35780;55.568;37.492;2022-09-20T18:11:32;7.95;;;5.30;;
49890;SDS011;35780;55.568;37.492;2022-09-20T18:14:02;9.48;;;5.75;;
49890;SDS011;35780;55.568;37.492;2022-09-20T18:16:28;8.88;;;5.40;;
49890;SDS011;35780;55.568;37.492;2022-09-20T18:18:58;10.40;;;5.60;;
49890;SDS011;35780;55.568;37.492;2022-09-20T18:21:24;15.35;;;5.60;;
49890;SDS011;35780;55.568;37.492;2022-09-20T18:23:51;10.00;;;5.28;;
49890;SDS011;35780;55.568;37.492;2022-09-20T18:26:18;14.30;;;5.93;;
49890;SDS011;35780;55.568;37.492;2022-09-20T18:31:25;8.00;;;5.75;;
49890;SDS011;35780;55.568;37.492;2022-09-20T18:33:54;11.82;;;5.32;;
49890;SDS011;35780;55.568;37.492;2022-09-20T18:36:20;10.98;;;5.60;;
49890;SDS011;35780;55.568;37.492;2022-09-20T18:38:48;9.43;;;4.88;;
49890;SDS011;35780;55.568;37.492;2022-09-20T18:41:17;19.77;;;5.75;;
49890;SDS011;35780;55.568;37.492;2022-09-20T18:43:45;11.10;;;5.85;;
49890;SDS011;35780;55.568;37.492;2022-09-20T18:46:10;12.05;;;6.20;;
49890;SDS011;35780;55.568;37.492;2022-09-20T18:48:36;10.80;;;5.82;;
49890;SDS011;35780;55.568;37.492;2022-09-20T18:51:06;10.38;;;6.45;;
49890;SDS011;35780;55.568;37.492;2022-09-20T18:53:34;13.90;;;5.95;;
49890;SDS011;35780;55.568;37.492;2022-09-20T18:56:05;12.02;;;6.20;;
49890;SDS011;35780;55.568;37.492;2022-09-20T18:58:44;11.27;;;6.70;;
49890;SDS011;35780;55.568;37.492;2022-09-20T19:12:41;14.93;;;6.28;;
49890;SDS011;35780;55.568;37.492;2022-09-20T19:15:21;10.98;;;6.93;;
49890;SDS011;35780;55.568;37.492;2022-09-20T19:18:02;13.23;;;7.10;;
49890;SDS011;35780;55.568;37.492;2022-09-20T19:23:02;18.90;;;8.02;;
49890;SDS011;35780;55.568;37.492;2022-09-20T19:25:40;15.15;;;8.20;;
49890;SDS011;35780;55.568;37.492;2022-09-20T19:28:12;25.13;;;9.03;;
49890;SDS011;35780;55.568;37.492;2022-09-20T19:30:40;13.18;;;8.77;;
49890;SDS011;35780;55.568;37.492;2022-09-20T19:33:16;16.38;;;8.32;;
49890;SDS011;35780;55.568;37.492;2022-09-20T19:35:45;11.30;;;7.50;;
49890;SDS011;35780;55.568;37.492;2022-09-20T19:41:02;19.05;;;9.60;;
49890;SDS011;35780;55.568;37.492;2022-09-20T19:49:13;17.63;;;8.80;;
49890;SDS011;35780;55.568;37.492;2022-09-20T19:51:41;15.18;;;9.18;;
49890;SDS011;35780;55.568;37.492;2022-09-20T19:54:11;20.98;;;10.10;;
49890;SDS011;35780;55.568;37.492;2022-09-20T19:56:44;30.00;;;11.13;;
49890;SDS011;35780;55.568;37.492;2022-09-20T19:59:20;16.38;;;10.10;;
49890;SDS011;35780;55.568;37.492;2022-09-20T20:01:48;17.30;;;9.05;;
49890;SDS011;35780;55.568;37.492;2022-09-20T20:04:14;23.08;;;9.85;;
49890;SDS011;35780;55.568;37.492;2022-09-20T20:12:26;18.92;;;9.95;;
49890;SDS011;35780;55.568;37.492;2022-09-20T20:23:18;12.32;;;8.80;;
49890;SDS011;35780;55.568;37.492;2022-09-20T20:28:16;12.02;;;8.52;;
49890;SDS011;35780;55.568;37.492;2022-09-20T20:30:42;13.25;;;8.68;;
49890;SDS011;35780;55.568;37.492;2022-09-20T20:33:14;14.45;;;8.77;;
49890;SDS011;35780;55.568;37.492;2022-09-20T20:35:40;10.85;;;8.07;;
49890;SDS011;35780;55.568;37.492;2022-09-20T20:38:05;13.48;;;7.50;;
49890;SDS011;35780;55.568;37.492;2022-09-20T20:40:34;13.57;;;8.15;;
49890;SDS011;35780;55.568;37.492;2022-09-20T20:43:00;12.48;;;8.77;;
49890;SDS011;35780;55.568;37.492;2022-09-20T20:45:27;10.88;;;7.68;;
49890;SDS011;35780;55.568;37.492;2022-09-20T20:47:56;11.00;;;8.13;;
49890;SDS011;35780;55.568;37.492;2022-09-20T20:50:23;14.23;;;9.32;;
49890;SDS011;35780;55.568;37.492;2022-09-20T20:52:52;12.80;;;8.00;;
49890;SDS011;35780;55.568;37.492;2022-09-20T20:55:18;13.15;;;7.68;;
49890;SDS011;35780;55.568;37.492;2022-09-20T20:57:49;14.25;;;7.55;;
49890;SDS011;35780;55.568;37.492;2022-09-20T21:00:25;11.25;;;7.40;;
49890;SDS011;35780;55.568;37.492;2022-09-20T21:03:00;16.15;;;8.55;;
49890;SDS011;35780;55.568;37.492;2022-09-20T21:05:27;14.55;;;8.85;;
49890;SDS011;35780;55.568;37.492;2022-09-20T21:07:53;20.23;;;9.15;;
49890;SDS011;35780;55.568;37.492;2022-09-20T21:10:19;17.90;;;8.88;;
49890;SDS011;35780;55.568;37.492;2022-09-20T21:12:48;13.80;;;8.93;;
49890;SDS011;35780;55.568;37.492;2022-09-20T21:15:15;11.77;;;7.88;;
49890;SDS011;35780;55.568;37.492;2022-09-20T21:17:50;11.65;;;7.47;;